createdAt,value
2022-12-19T00:00:20.580Z,100834.72
2022-12-19T00:03:08.578Z,100851.13
2022-12-19T00:05:57.174Z,100859.75
2022-12-19T00:08:46.969Z,100852.22
2022-12-19T00:11:36.213Z,100848.44
2022-12-19T00:14:24.115Z,100845.97
2022-12-19T00:17:12.611Z,100845.75
2022-12-19T00:20:00.584Z,100836.03
2022-12-19T00:22:48.524Z,100839.47
2022-12-19T00:25:40.116Z,100845.13
2022-12-19T00:28:32.361Z,100840.56
2022-12-19T00:31:21.965Z,100830.25
2022-12-19T00:34:10.158Z,100830.03
2022-12-19T00:37:00.156Z,100817.03
2022-12-19T00:39:49.771Z,100816.53
2022-12-19T00:42:37.786Z,100808.97
2022-12-19T00:45:27.808Z,100814.06
2022-12-19T00:48:17.995Z,100809.38
2022-12-19T00:51:10.938Z,100803.25
2022-12-19T00:53:59.537Z,100758.59
2022-12-19T00:56:47.713Z,100796.16
2022-12-19T00:59:35.718Z,100800.44
2022-12-19T01:02:25.499Z,100796.63
2022-12-19T01:05:14.989Z,100806.81
2022-12-19T01:08:02.958Z,100803.53
2022-12-19T01:10:51.768Z,100801.25
2022-12-19T01:13:39.822Z,100788.22
2022-12-19T01:16:30.229Z,100803.09
2022-12-19T01:19:21.142Z,100822.09
2022-12-19T01:22:09.125Z,100832.47
2022-12-19T01:24:57.524Z,100824.63
2022-12-19T01:27:45.462Z,100825.94
2022-12-19T01:30:33.942Z,100824.03
2022-12-19T01:33:25.925Z,100821.59
2022-12-19T01:36:16.371Z,100829.44
2022-12-19T01:39:04.401Z,100812.44
2022-12-19T01:41:52.383Z,100813.81
2022-12-19T01:44:40.363Z,100814.00
2022-12-19T01:47:29.064Z,100812.94
2022-12-19T01:50:22.144Z,100798.94
2022-12-19T01:53:15.184Z,100787.78
2022-12-19T01:56:09.763Z,100782.94
2022-12-19T01:59:06.311Z,100772.66
2022-12-19T02:02:04.809Z,100768.84
2022-12-19T02:04:52.835Z,100775.81
2022-12-19T02:07:43.161Z,100767.16
2022-12-19T02:10:32.473Z,100756.13
2022-12-19T02:13:21.540Z,100761.22
2022-12-19T02:16:21.143Z,100763.28
2022-12-19T02:19:54.950Z,100760.75
2022-12-19T02:23:01.878Z,100757.31
2022-12-19T02:26:08.650Z,100768.03
2022-12-19T02:29:25.689Z,100771.59
2022-12-19T02:32:20.839Z,100766.75
2022-12-19T02:35:16.063Z,100765.09
2022-12-19T02:38:13.735Z,100761.88
2022-12-19T02:41:07.611Z,100754.59
2022-12-19T02:43:58.995Z,100755.09
2022-12-19T02:46:51.198Z,100744.06
2022-12-19T02:49:40.701Z,100761.00
2022-12-19T02:52:46.851Z,100765.88
2022-12-19T02:55:43.255Z,100763.41
2022-12-19T02:58:49.453Z,100765.56
2022-12-19T03:01:46.019Z,100762.84
2022-12-19T03:04:46.087Z,100760.09
2022-12-19T03:07:38.357Z,100755.75
2022-12-19T03:10:33.939Z,100758.66
2022-12-19T03:13:27.048Z,100765.56
2022-12-19T03:16:15.931Z,100768.31
2022-12-19T03:19:06.240Z,100771.63
2022-12-19T03:21:55.824Z,100771.38
2022-12-19T03:24:43.948Z,100769.25
2022-12-19T03:27:35.847Z,100775.47
2022-12-19T03:30:24.281Z,100764.91
2022-12-19T03:33:14.634Z,100761.97
2022-12-19T03:36:07.654Z,100752.78
2022-12-19T03:38:58.828Z,100752.75
2022-12-19T03:42:04.877Z,100741.47
2022-12-19T03:44:56.486Z,100744.69
2022-12-19T03:47:49.574Z,100738.69
2022-12-19T03:50:47.740Z,100754.38
2022-12-19T03:53:46.167Z,100758.13
2022-12-19T03:56:42.295Z,100753.03
2022-12-19T03:59:36.018Z,100744.78
2022-12-19T04:02:25.228Z,100744.22
2022-12-19T04:05:18.039Z,100742.53
2022-12-19T04:08:09.351Z,100750.63
2022-12-19T04:11:02.571Z,100757.06
2022-12-19T04:13:57.141Z,100749.19
2022-12-19T04:16:49.056Z,100747.59
2022-12-19T04:19:43.777Z,100749.44
2022-12-19T04:22:36.644Z,100758.88
2022-12-19T04:25:30.144Z,100728.59
2022-12-19T04:28:21.431Z,100757.22
2022-12-19T04:31:14.643Z,100751.59
2022-12-19T04:34:02.652Z,100753.72
2022-12-19T04:36:51.693Z,100751.53
2022-12-19T04:39:39.732Z,100748.56
2022-12-19T04:42:27.710Z,100738.47
2022-12-19T04:45:18.294Z,100744.91
2022-12-19T04:48:08.941Z,100746.34
2022-12-19T04:50:57.357Z,100742.16
2022-12-19T04:53:45.445Z,100736.75
2022-12-19T04:56:33.386Z,100719.50
2022-12-19T04:59:21.365Z,100726.81
2022-12-19T05:02:09.463Z,100724.53
2022-12-19T05:04:58.848Z,100722.88
2022-12-19T05:07:48.054Z,100708.56
2022-12-19T05:10:37.513Z,100711.81
2022-12-19T05:13:25.465Z,100699.31
2022-12-19T05:16:15.005Z,100696.63
2022-12-19T05:19:03.049Z,100685.81
2022-12-19T05:21:52.312Z,100689.91
2022-12-19T05:24:40.277Z,100691.19
2022-12-19T05:27:28.227Z,100703.50
2022-12-19T05:30:16.240Z,100695.63
2022-12-19T05:33:04.485Z,100696.94
2022-12-19T05:35:52.478Z,100691.72
2022-12-19T05:38:42.396Z,100686.31
2022-12-19T05:41:30.339Z,100691.34
2022-12-19T05:44:18.319Z,100698.16
2022-12-19T05:47:06.373Z,100696.31
2022-12-19T05:49:54.340Z,100708.03
2022-12-19T05:52:42.387Z,100701.47
2022-12-19T05:55:31.854Z,100707.88
2022-12-19T05:58:19.808Z,100721.75
2022-12-19T06:01:09.608Z,100723.06
2022-12-19T06:03:57.614Z,100717.91
2022-12-19T06:06:45.609Z,100723.00
2022-12-19T06:09:33.657Z,100731.78
2022-12-19T06:12:23.133Z,100729.03
2022-12-19T06:15:12.164Z,100714.09
2022-12-19T06:18:00.113Z,100695.69
2022-12-19T06:20:57.321Z,100694.78
2022-12-19T06:23:46.215Z,100688.34
2022-12-19T06:26:34.212Z,100693.22
2022-12-19T06:29:23.742Z,100690.75
2022-12-19T06:32:12.715Z,100701.88
2022-12-19T06:35:04.770Z,100717.81
2022-12-19T06:37:57.887Z,100702.69
2022-12-19T06:41:06.592Z,100712.34
2022-12-19T06:43:54.538Z,100718.28
2022-12-19T06:46:44.260Z,100722.75
2022-12-19T06:49:32.312Z,100724.41
2022-12-19T06:52:20.356Z,100728.59
2022-12-19T06:55:09.178Z,100717.75
2022-12-19T06:57:57.139Z,100730.00
2022-12-19T07:00:45.575Z,100718.78
2022-12-19T07:03:38.872Z,100713.97
2022-12-19T07:06:07.722Z,100705.84
2022-12-19T07:08:35.361Z,100711.91
2022-12-19T07:11:03.050Z,100705.06
2022-12-19T07:13:30.915Z,100709.06
2022-12-19T07:16:03.618Z,100691.28
2022-12-19T07:18:34.143Z,100697.00
2022-12-19T07:21:03.459Z,100694.81
2022-12-19T07:23:31.322Z,100698.25
2022-12-19T07:25:59.272Z,100700.88
2022-12-19T07:28:27.088Z,100701.38
2022-12-19T07:30:54.735Z,100705.72
2022-12-19T07:33:22.406Z,100699.13
2022-12-19T07:35:50.086Z,100701.69
2022-12-19T07:38:19.250Z,100701.91
2022-12-19T07:40:46.913Z,100696.84
2022-12-19T07:43:14.555Z,100694.88
2022-12-19T07:45:43.681Z,100694.00
2022-12-19T07:48:11.352Z,100695.81
2022-12-19T07:50:39.051Z,100703.94
2022-12-19T07:53:06.681Z,100707.25
2022-12-19T07:55:35.759Z,100704.88
2022-12-19T07:58:03.844Z,100714.78
2022-12-19T08:00:31.681Z,100707.75
2022-12-19T08:02:59.559Z,100706.50
2022-12-19T08:05:27.383Z,100704.19
2022-12-19T08:07:55.508Z,100706.06
2022-12-19T08:10:23.563Z,100711.13
2022-12-19T08:12:52.986Z,100703.47
2022-12-19T08:15:20.695Z,100710.72
2022-12-19T08:17:48.398Z,100716.88
2022-12-19T08:20:16.158Z,100721.44
2022-12-19T08:22:43.833Z,100731.09
2022-12-19T08:25:11.625Z,100718.53
2022-12-19T08:27:39.660Z,100721.66
2022-12-19T08:30:11.825Z,100712.59
2022-12-19T08:32:39.977Z,100703.59
2022-12-19T08:35:08.980Z,100669.59
2022-12-19T08:37:37.007Z,100709.50
2022-12-19T08:40:05.275Z,100704.59
2022-12-19T08:42:33.489Z,100706.59
2022-12-19T08:45:01.257Z,100689.19
2022-12-19T08:47:30.244Z,100696.34
2022-12-19T08:49:58.056Z,100688.00
2022-12-19T08:52:25.804Z,100691.84
2022-12-19T08:54:53.490Z,100686.00
2022-12-19T08:57:21.137Z,100682.47
2022-12-19T08:59:48.737Z,100677.81
2022-12-19T09:02:17.466Z,100683.59
2022-12-19T09:06:03.902Z,100684.88
2022-12-19T09:07:38.890Z,100685.22
2022-12-19T09:10:08.258Z,100687.88
2022-12-19T09:12:35.914Z,100700.06
2022-12-19T09:15:03.666Z,100684.59
2022-12-19T09:17:31.340Z,100687.91
2022-12-19T09:20:00.987Z,100613.28
2022-12-19T09:22:29.538Z,100678.66
2022-12-19T09:24:57.479Z,100676.69
2022-12-19T09:27:25.436Z,100652.72
2022-12-19T09:29:53.244Z,100680.34
2022-12-19T09:32:20.873Z,100684.84
2022-12-19T09:34:48.592Z,100697.56
2022-12-19T09:37:18.093Z,100699.88
2022-12-19T09:39:47.139Z,100684.84
2022-12-19T09:42:31.825Z,100679.06
2022-12-19T09:45:35.994Z,100683.41
2022-12-19T09:48:05.790Z,100688.28
2022-12-19T09:50:46.188Z,100682.03
2022-12-19T09:53:21.996Z,100676.13
2022-12-19T09:55:54.063Z,100673.38
2022-12-19T09:58:32.701Z,100678.38
2022-12-19T10:01:06.877Z,100684.53
2022-12-19T10:03:40.485Z,100679.28
2022-12-19T10:07:11.196Z,100683.91
2022-12-19T10:11:34.774Z,100675.91
2022-12-19T10:12:45.956Z,100690.13
2022-12-19T10:15:17.695Z,100670.78
2022-12-19T10:18:12.051Z,100666.81
2022-12-19T10:20:43.260Z,100676.09
2022-12-19T10:23:29.145Z,100672.41
2022-12-19T10:26:01.390Z,100658.97
2022-12-19T10:28:52.994Z,100654.19
2022-12-19T10:31:25.671Z,100637.19
2022-12-19T10:33:58.835Z,100622.94
2022-12-19T10:36:55.946Z,100631.75
2022-12-19T10:39:23.432Z,100621.03
2022-12-19T10:41:57.410Z,100631.78
2022-12-19T10:44:29.125Z,100638.94
2022-12-19T10:46:57.082Z,100635.75
2022-12-19T10:49:27.821Z,100644.69
2022-12-19T10:52:00.080Z,100637.34
2022-12-19T10:54:39.401Z,100629.97
2022-12-19T10:57:25.414Z,100616.00
2022-12-19T10:59:58.600Z,100599.66
2022-12-19T11:02:42.326Z,100592.41
2022-12-19T11:05:25.082Z,100582.63
2022-12-19T11:08:04.276Z,100570.44
2022-12-19T11:11:47.808Z,100592.63
2022-12-19T11:18:38.896Z,100596.13
2022-12-19T11:19:28.388Z,100607.00
2022-12-19T11:29:27.014Z,100613.13
2022-12-19T11:29:37.048Z,100602.84
2022-12-19T11:30:35.805Z,100595.13
2022-12-19T11:30:45.727Z,100603.41
2022-12-19T11:32:14.217Z,100587.44
2022-12-19T11:33:56.133Z,100576.72
2022-12-19T11:36:33.103Z,100583.63
2022-12-19T11:39:01.261Z,100578.34
2022-12-19T11:41:39.796Z,100568.28
2022-12-19T11:44:12.642Z,100567.84
2022-12-19T11:46:46.454Z,100572.63
2022-12-19T11:49:24.307Z,100563.53
2022-12-19T11:52:29.586Z,100564.94
2022-12-19T11:55:02.983Z,100568.00
2022-12-19T11:57:30.680Z,100567.22
2022-12-19T12:00:04.717Z,100559.34
2022-12-19T12:03:06.084Z,100559.50
2022-12-19T12:05:44.095Z,100552.59
2022-12-19T12:10:09.386Z,100545.06
2022-12-19T12:14:31.695Z,100565.09
2022-12-19T12:23:31.098Z,100554.81
2022-12-19T12:29:37.981Z,100550.75
2022-12-19T12:31:12.695Z,100540.81
2022-12-19T12:31:47.315Z,100540.31
2022-12-19T12:32:05.262Z,100532.97
2022-12-19T12:32:06.312Z,100538.56
2022-12-19T12:35:40.930Z,100521.34
2022-12-19T12:38:40.099Z,100511.34
2022-12-19T12:41:20.272Z,100469.88
2022-12-19T12:44:01.526Z,100523.00
2022-12-19T12:46:39.240Z,100523.00
2022-12-19T12:49:13.189Z,100524.97
2022-12-19T12:51:41.959Z,100527.88
2022-12-19T12:54:14.967Z,100516.50
2022-12-19T12:56:43.753Z,100527.94
2022-12-19T12:59:22.411Z,100531.19
2022-12-19T13:01:54.322Z,100528.06
2022-12-19T13:04:42.094Z,100518.00
2022-12-19T13:07:19.792Z,100491.94
2022-12-19T13:09:54.083Z,100518.22
2022-12-19T13:12:43.935Z,100512.66
2022-12-19T13:15:34.370Z,100516.13
2022-12-19T13:18:12.876Z,100509.66
2022-12-19T13:20:46.672Z,100514.34
2022-12-19T13:23:56.984Z,100516.16
2022-12-19T13:26:49.429Z,100520.03
2022-12-19T13:29:54.785Z,100512.22
2022-12-19T13:32:23.769Z,100508.72
2022-12-19T13:35:04.010Z,100502.00
2022-12-19T13:40:00.091Z,100500.22
2022-12-19T13:40:51.723Z,100509.38
2022-12-19T13:43:42.641Z,100505.84
2022-12-19T13:46:24.893Z,100514.66
2022-12-19T13:48:56.590Z,100514.31
2022-12-19T13:51:24.302Z,100512.38
2022-12-19T13:53:59.534Z,100518.63
2022-12-19T13:56:31.618Z,100506.16
2022-12-19T13:59:03.575Z,100506.78
2022-12-19T14:01:33.749Z,100506.44
2022-12-19T14:04:07.781Z,100508.53
2022-12-19T14:06:42.047Z,100505.63
2022-12-19T14:11:25.582Z,100505.63
2022-12-19T14:13:52.987Z,100474.03
2022-12-19T14:15:27.641Z,100497.59
2022-12-19T14:17:55.398Z,100504.13
2022-12-19T14:22:07.079Z,100504.13
2022-12-19T14:23:14.115Z,100450.69
2022-12-19T14:28:17.829Z,100500.09
2022-12-19T14:28:41.305Z,100497.50
2022-12-19T14:31:15.063Z,100485.38
2022-12-19T14:34:11.244Z,100489.84
2022-12-19T14:36:49.122Z,100486.81
2022-12-19T14:39:27.506Z,100489.50
2022-12-19T14:42:57.019Z,100483.91
2022-12-19T14:54:18.066Z,100482.41
2022-12-19T14:54:21.091Z,100472.31
2022-12-19T14:54:26.801Z,100468.31
2022-12-19T14:56:08.366Z,100465.81
2022-12-19T14:57:25.502Z,100465.91
2022-12-19T15:00:50.924Z,100464.94
2022-12-19T15:03:19.767Z,100465.69
2022-12-19T15:05:49.296Z,100482.22
2022-12-19T15:09:01.241Z,100491.97
2022-12-19T15:11:54.090Z,100497.34
2022-12-19T15:14:53.992Z,100496.66
2022-12-19T15:17:23.761Z,100493.72
2022-12-19T15:19:52.488Z,100498.81
2022-12-19T15:22:21.458Z,100491.59
2022-12-19T15:24:49.149Z,100487.91
2022-12-19T15:27:17.971Z,100473.91
2022-12-19T15:29:46.071Z,100476.88
2022-12-19T15:32:15.003Z,100475.34
2022-12-19T15:34:50.633Z,100479.78
2022-12-19T15:37:18.974Z,100471.75
2022-12-19T15:39:48.013Z,100472.44
2022-12-19T15:42:19.661Z,100469.03
2022-12-19T15:44:49.175Z,100422.25
2022-12-19T15:47:19.483Z,100459.59
2022-12-19T15:49:47.287Z,100451.47
2022-12-19T15:52:18.291Z,100456.69
2022-12-19T15:54:49.812Z,100425.13
2022-12-19T15:57:32.450Z,100445.06
2022-12-19T16:00:02.132Z,100441.66
2022-12-19T16:05:23.839Z,100460.59
2022-12-19T16:07:51.905Z,100445.84
2022-12-19T16:10:19.644Z,100454.56
2022-12-19T16:12:51.866Z,100460.16
2022-12-19T16:15:26.271Z,100451.41
2022-12-19T16:17:54.319Z,100449.22
2022-12-19T16:20:24.337Z,100453.72
2022-12-19T16:22:52.907Z,100443.16
2022-12-19T16:25:20.739Z,100438.75
2022-12-19T16:27:55.687Z,100439.31
2022-12-19T16:30:25.247Z,100432.91
2022-12-19T16:32:53.896Z,100438.31
2022-12-19T16:35:55.084Z,100434.69
2022-12-19T16:38:11.415Z,100428.66
2022-12-19T16:40:39.548Z,100432.53
2022-12-19T16:43:15.452Z,100430.44
2022-12-19T16:45:44.180Z,100388.97
2022-12-19T16:48:19.826Z,100434.75
2022-12-19T16:50:47.496Z,100431.19
2022-12-19T16:53:15.506Z,100430.94
2022-12-19T16:55:44.140Z,100435.03
2022-12-19T16:58:17.340Z,100430.00
2022-12-19T17:00:45.312Z,100417.03
2022-12-19T17:03:28.281Z,100406.63
2022-12-19T17:05:56.656Z,100419.28
2022-12-19T17:08:24.708Z,100393.22
2022-12-19T17:10:54.324Z,100408.44
2022-12-19T17:13:24.619Z,100413.75
2022-12-19T17:15:56.803Z,100412.53
2022-12-19T17:18:29.242Z,100418.78
2022-12-19T17:20:57.872Z,100421.69
2022-12-19T17:23:28.910Z,100433.56
2022-12-19T17:25:57.874Z,100415.00
2022-12-19T17:28:27.291Z,100413.09
2022-12-19T17:30:57.380Z,100400.75
2022-12-19T17:33:29.648Z,100410.34
2022-12-19T17:35:57.424Z,100408.41
2022-12-19T17:38:27.189Z,100398.22
2022-12-19T17:40:54.914Z,100403.97
2022-12-19T17:43:22.634Z,100398.00
2022-12-19T17:45:52.837Z,100415.28
2022-12-19T17:48:27.275Z,100419.47
2022-12-19T17:50:55.648Z,100412.28
2022-12-19T17:53:23.442Z,100423.66
2022-12-19T17:55:51.469Z,100391.78
2022-12-19T17:58:19.192Z,100422.19
2022-12-19T18:00:48.066Z,100423.50
2022-12-19T18:03:22.495Z,100426.69
2022-12-19T18:05:51.396Z,100424.94
2022-12-19T18:08:27.827Z,100387.16
2022-12-19T18:10:57.435Z,100404.44
2022-12-19T18:13:26.342Z,100404.59
2022-12-19T18:15:57.411Z,100398.50
2022-12-19T18:18:30.614Z,100399.47
2022-12-19T18:20:59.736Z,100387.16
2022-12-19T18:23:27.831Z,100413.56
2022-12-19T18:26:01.132Z,100407.19
2022-12-19T18:28:29.853Z,100406.88
2022-12-19T18:31:01.171Z,100414.84
2022-12-19T18:33:37.869Z,100409.88
2022-12-19T18:36:07.642Z,100402.81
2022-12-19T18:38:35.658Z,100418.47
2022-12-19T18:41:03.698Z,100408.19
2022-12-19T18:43:32.594Z,100409.28
2022-12-19T18:46:00.414Z,100395.22
2022-12-19T18:48:32.322Z,100384.94
2022-12-19T18:51:01.909Z,100376.47
2022-12-19T18:53:35.241Z,100375.69
2022-12-19T18:56:05.930Z,100376.66
2022-12-19T18:58:34.248Z,100376.47
2022-12-19T19:01:03.745Z,100376.19
2022-12-19T19:03:34.693Z,100390.88
2022-12-19T19:06:03.601Z,100385.44
2022-12-19T19:08:33.491Z,100383.47
2022-12-19T19:11:17.566Z,100391.66
2022-12-19T19:13:45.207Z,100386.56
2022-12-19T19:16:18.939Z,100393.31
2022-12-19T19:18:52.544Z,100402.47
2022-12-19T19:21:21.612Z,100399.56
2022-12-19T19:23:55.235Z,100395.19
2022-12-19T19:26:23.051Z,100391.59
2022-12-19T19:28:52.704Z,100383.72
2022-12-19T19:31:24.228Z,100392.50
2022-12-19T19:33:58.408Z,100399.88
2022-12-19T19:36:30.556Z,100405.59
2022-12-19T19:38:59.056Z,100398.09
2022-12-19T19:41:29.592Z,100393.16
2022-12-19T19:43:57.468Z,100384.25
2022-12-19T19:46:25.229Z,100393.63
2022-12-19T19:48:54.277Z,100401.38
2022-12-19T19:51:22.187Z,100397.97
2022-12-19T19:53:50.106Z,100397.50
2022-12-19T19:56:17.759Z,100401.81
2022-12-19T19:58:45.567Z,100399.66
2022-12-19T20:01:15.363Z,100399.34
2022-12-19T20:03:44.877Z,100410.50
2022-12-19T20:06:14.474Z,100405.00
2022-12-19T20:08:42.145Z,100406.16
2022-12-19T20:11:10.489Z,100413.81
2022-12-19T20:13:39.205Z,100418.44
2022-12-19T20:16:08.982Z,100431.47
2022-12-19T20:18:38.052Z,100425.66
2022-12-19T20:21:12.770Z,100428.97
2022-12-19T20:23:43.548Z,100422.91
2022-12-19T20:26:12.288Z,100429.19
2022-12-19T20:28:47.666Z,100440.00
2022-12-19T20:31:15.937Z,100435.91
2022-12-19T20:33:43.656Z,100388.16
2022-12-19T20:36:13.489Z,100437.34
2022-12-19T20:38:42.812Z,100414.34
2022-12-19T20:41:10.828Z,100423.59
2022-12-19T20:43:38.992Z,100430.28
2022-12-19T20:46:09.652Z,100414.19
2022-12-19T20:48:38.061Z,100431.25
2022-12-19T20:51:07.121Z,100437.09
2022-12-19T20:53:36.185Z,100442.66
2022-12-19T20:56:07.176Z,100432.19
2022-12-19T20:58:36.717Z,100427.38
2022-12-19T21:01:07.210Z,100443.75
2022-12-19T21:03:55.366Z,100434.22
2022-12-19T21:06:43.433Z,100435.31
2022-12-19T21:09:31.346Z,100418.19
2022-12-19T21:12:21.408Z,100429.09
2022-12-19T21:15:09.727Z,100427.09
2022-12-19T21:17:57.664Z,100421.25
2022-12-19T21:20:46.120Z,100411.47
2022-12-19T21:23:34.574Z,100412.38
2022-12-19T21:26:24.744Z,100415.94
2022-12-19T21:29:14.585Z,100426.31
2022-12-19T21:32:02.666Z,100390.03
2022-12-19T21:34:53.519Z,100417.78
2022-12-19T21:37:43.749Z,100423.84
2022-12-19T21:40:31.872Z,100419.03
2022-12-19T21:43:19.838Z,100421.84
2022-12-19T21:46:12.294Z,100427.56
2022-12-19T21:49:00.705Z,100414.53
2022-12-19T21:51:48.648Z,100408.81
2022-12-19T21:54:36.613Z,100411.78
2022-12-19T21:57:24.759Z,100407.25
2022-12-19T22:00:14.266Z,100411.47
2022-12-19T22:03:18.790Z,100412.44
2022-12-19T22:06:08.936Z,100422.84
2022-12-19T22:08:57.405Z,100412.66
2022-12-19T22:11:45.872Z,100412.44
2022-12-19T22:14:34.196Z,100410.50
2022-12-19T22:17:22.833Z,100404.53
2022-12-19T22:20:12.388Z,100415.94
2022-12-19T22:23:00.335Z,100405.47
2022-12-19T22:25:48.260Z,100421.03
2022-12-19T22:28:38.853Z,100426.16
2022-12-19T22:31:28.878Z,100429.97
2022-12-19T22:34:18.756Z,100428.72
2022-12-19T22:37:08.102Z,100413.81
2022-12-19T22:39:59.895Z,100415.25
2022-12-19T22:42:47.804Z,100410.69
2022-12-19T22:45:35.766Z,100397.31
2022-12-19T22:48:23.832Z,100389.25
2022-12-19T22:51:12.414Z,100392.38
2022-12-19T22:54:02.468Z,100387.25
2022-12-19T22:56:51.590Z,100399.66
2022-12-19T22:59:40.383Z,100397.63
2022-12-19T23:02:29.164Z,100382.91
2022-12-19T23:05:17.583Z,100388.84
2022-12-19T23:08:06.006Z,100375.38
2022-12-19T23:10:55.535Z,100397.25
2022-12-19T23:13:44.598Z,100392.72
2022-12-19T23:16:32.721Z,100400.34
2022-12-19T23:19:20.832Z,100390.44
2022-12-19T23:22:08.856Z,100392.03
2022-12-19T23:24:56.827Z,100387.72
2022-12-19T23:27:47.188Z,100392.16
2022-12-19T23:30:35.151Z,100385.31
2022-12-19T23:33:23.096Z,100377.91
2022-12-19T23:36:11.188Z,100379.25
2022-12-19T23:38:59.162Z,100379.03
2022-12-19T23:41:47.112Z,100373.00
2022-12-19T23:44:36.609Z,100372.78
2022-12-19T23:47:24.553Z,100363.19
2022-12-19T23:50:12.706Z,100367.75
2022-12-19T23:53:00.661Z,100358.09
2022-12-19T23:55:50.390Z,100355.00
2022-12-19T23:58:38.446Z,100362.25
